METAR ET TAF INFORMATION
METAR FOR ENBV
ADDS - METARS form results

(0530 UTC 16 October 2019)
Data provider http://aviationweather.gov/metar/data/
 
METAR text: ENBV 160450Z 023008KT 9999 FEW016 BKN040 M02/M03 Q1018
Conditions at: ENBV (BERLEVAG , NO) observed 0450 UTC 16 October 2019
Temperature: -2.0°C (28°F)
Dewpoint: -3.0°C (27°F) [RH = 93%]
Pressure (altimeter): 30.06 inches Hg (1018.0 mb)
Winds: from the NNE (23 degrees) at 9 MPH (8 knots; 4.1 m/s)
Visibility: 6 or more miles (10+ km)
Ceiling: 4000 feet AGL
Clouds: few clouds at 1600 feet AGL
broken clouds at 4000 feet AGL
Weather: no significant weather observed at this time

 AÉROPORT DE AÉROPORT

 INFORMATIONS DE PISTE
Piste 06 Longueur de la piste 3372 ft Largeur de la piste 98 ft
Élévation de la piste 42 ft Seuil de la piste déplacés 0 ft Runway heading 0
Piste 24 Longueur de la piste 3372 ft Largeur de la piste 98 ft
Élévation de la piste 28 ft Seuil de la piste déplacés 0 ft Runway heading 0

 AÉROPORT FRÉQUENCES

 SIDA DE NAVIGATION
Type NDB Nom Berlevag Féquence 399 KHZ



Powered by Virtual Airlines Manager [v2.6.2]